Weather at Aeródromo Loring

Public forecast

Using degrees Celsius for public forecast. Weather courtesy of forecast.io.

Closest aviation weather report (METAR) to Aeródromo Loring

Closest report is Adolfo Suárez Madrid–Barajas Airport, 11.4 nm (21.1 km) S. Retrieved 2021/04/14 02:30 UTC (9 minutes ago):

LEMD 140230Z 35004KT 9999 FEW025 BKN065 10/08 Q1019 NOSIG

Closest aviation forecast (TAF) to Aeródromo Loring

Closest forecast is Base Aérea de Colmenar Viejo, 8.0 nm (14.8 km) WNW. Retrieved 2021-04-14 00:00 UTC (3 hours ago):

TAF LECV 132300Z 1400/1424 02007KT 9999 FEW012 BKN040 TX17/1415Z TN07/1406Z PROB40 1404/1407 BKN010 BECMG 1406/1407 09008KT BECMG 1412/1413 14008KT PROB40 TEMPO 1413/1418 FEW025TCU PROB30 TEMPO 1416/1420 SHRA SCT025TCU BECMG 1419/1420 07007KT